createdAt,value
2022-08-30T00:00:03.184Z,15.96
2022-08-30T00:01:03.201Z,15.93
2022-08-30T00:02:03.196Z,15.90
2022-08-30T00:03:03.314Z,15.90
2022-08-30T00:04:03.277Z,15.86
2022-08-30T00:05:03.186Z,15.82
2022-08-30T00:06:03.191Z,15.79
2022-08-30T00:07:03.205Z,15.75
2022-08-30T00:08:03.185Z,15.71
2022-08-30T00:09:03.181Z,15.67
2022-08-30T00:10:03.471Z,15.64
2022-08-30T00:11:03.197Z,15.60
2022-08-30T00:12:03.170Z,15.57
2022-08-30T00:13:03.181Z,15.54
2022-08-30T00:14:03.238Z,15.51
2022-08-30T00:15:03.202Z,15.49
2022-08-30T00:16:03.283Z,15.48
2022-08-30T00:17:03.200Z,15.46
2022-08-30T00:18:03.202Z,15.43
2022-08-30T00:19:03.233Z,15.41
2022-08-30T00:20:03.213Z,15.38
2022-08-30T00:21:03.190Z,15.36
2022-08-30T00:22:03.197Z,15.34
2022-08-30T00:23:03.255Z,15.32
2022-08-30T00:24:03.212Z,15.29
2022-08-30T00:25:03.208Z,15.27
2022-08-30T00:26:03.211Z,15.25
2022-08-30T00:27:03.211Z,15.22
2022-08-30T00:28:03.243Z,15.21
2022-08-30T00:29:03.202Z,15.17
2022-08-30T00:30:03.215Z,15.15
2022-08-30T00:31:03.322Z,15.12
2022-08-30T00:32:03.228Z,15.06
2022-08-30T00:33:03.208Z,15.06
2022-08-30T00:34:03.222Z,15.04
2022-08-30T00:35:03.216Z,15.02
2022-08-30T00:36:03.259Z,14.99
2022-08-30T00:37:03.230Z,14.96
2022-08-30T00:38:03.226Z,14.94
2022-08-30T00:39:03.211Z,14.92
2022-08-30T00:40:03.331Z,14.91
2022-08-30T00:41:03.252Z,14.88
2022-08-30T00:42:03.228Z,14.87
2022-08-30T00:43:05.614Z,14.86
2022-08-30T00:44:03.222Z,14.82
2022-08-30T00:45:03.240Z,14.80
2022-08-30T00:46:03.265Z,14.79
2022-08-30T00:47:03.255Z,14.79
2022-08-30T00:48:03.222Z,14.76
2022-08-30T00:49:03.255Z,14.76
2022-08-30T00:50:03.275Z,14.74
2022-08-30T00:51:03.227Z,14.73
2022-08-30T00:52:03.238Z,14.73
2022-08-30T00:53:03.254Z,14.73
2022-08-30T00:54:03.255Z,14.72
2022-08-30T00:55:03.241Z,14.71
2022-08-30T00:56:03.241Z,14.72
2022-08-30T00:57:03.260Z,14.69
2022-08-30T00:58:04.331Z,14.68
2022-08-30T00:59:03.246Z,14.66
2022-08-30T01:00:03.271Z,14.65
2022-08-30T01:01:03.341Z,14.64
2022-08-30T01:02:03.291Z,14.61
2022-08-30T01:03:03.317Z,14.61
2022-08-30T01:04:03.262Z,14.59
2022-08-30T01:05:03.257Z,14.55
2022-08-30T01:06:03.273Z,14.56
2022-08-30T01:07:03.260Z,14.56
2022-08-30T01:08:03.278Z,14.56
2022-08-30T01:09:03.247Z,14.53
2022-08-30T01:10:03.407Z,14.52
2022-08-30T01:11:03.272Z,14.52
2022-08-30T01:12:03.260Z,14.51
2022-08-30T01:13:03.279Z,14.47
2022-08-30T01:14:03.257Z,14.45
2022-08-30T01:15:03.308Z,14.46
2022-08-30T01:16:03.407Z,14.44
2022-08-30T01:17:03.273Z,14.43
2022-08-30T01:18:03.302Z,14.42
2022-08-30T01:19:03.293Z,14.40
2022-08-30T01:20:03.263Z,14.36
2022-08-30T01:21:03.266Z,14.36
2022-08-30T01:22:03.285Z,14.35
2022-08-30T01:23:03.262Z,14.33
2022-08-30T01:24:03.290Z,14.31
2022-08-30T01:25:03.299Z,14.30
2022-08-30T01:26:03.296Z,14.30
2022-08-30T01:27:03.273Z,14.29
2022-08-30T01:28:03.312Z,14.29
2022-08-30T01:29:03.299Z,14.29
2022-08-30T01:30:03.314Z,14.30
2022-08-30T01:31:03.330Z,14.31
2022-08-30T01:32:03.279Z,14.32
2022-08-30T01:33:03.286Z,14.33
2022-08-30T01:34:03.309Z,14.31
2022-08-30T01:35:03.284Z,14.31
2022-08-30T01:36:03.314Z,14.32
2022-08-30T01:37:03.315Z,14.30
2022-08-30T01:38:03.305Z,14.29
2022-08-30T01:39:03.303Z,14.27
2022-08-30T01:40:03.381Z,14.27
2022-08-30T01:41:03.297Z,14.24
2022-08-30T01:42:03.318Z,14.23
2022-08-30T01:43:03.297Z,14.20
2022-08-30T01:44:03.294Z,14.18
2022-08-30T01:45:03.308Z,14.17
2022-08-30T01:46:03.385Z,14.16
2022-08-30T01:47:03.299Z,14.15
2022-08-30T01:48:03.325Z,14.14
2022-08-30T01:49:03.313Z,14.13
2022-08-30T01:50:03.310Z,14.13
2022-08-30T01:51:03.337Z,14.12
2022-08-30T01:52:03.308Z,14.10
2022-08-30T01:53:03.308Z,14.07
2022-08-30T01:54:03.337Z,14.04
2022-08-30T01:55:03.324Z,14.02
2022-08-30T01:56:03.322Z,13.99
2022-08-30T01:57:03.296Z,13.97
2022-08-30T01:58:03.326Z,13.93
2022-08-30T01:59:03.401Z,13.90
2022-08-30T02:00:03.312Z,13.86
2022-08-30T02:01:03.333Z,13.82
2022-08-30T02:02:03.304Z,13.81
2022-08-30T02:03:03.316Z,13.78
2022-08-30T02:04:03.496Z,13.75
2022-08-30T02:05:03.368Z,13.71
2022-08-30T02:06:03.321Z,13.67
2022-08-30T02:07:03.376Z,13.65
2022-08-30T02:08:03.330Z,13.64
2022-08-30T02:09:03.321Z,13.61
2022-08-30T02:10:03.339Z,13.62
2022-08-30T02:11:03.323Z,13.61
2022-08-30T02:12:03.356Z,13.60
2022-08-30T02:13:03.326Z,13.58
2022-08-30T02:14:03.343Z,13.57
2022-08-30T02:15:03.364Z,13.56
2022-08-30T02:16:03.322Z,13.54
2022-08-30T02:17:03.410Z,13.53
2022-08-30T02:18:03.320Z,13.50
2022-08-30T02:19:03.322Z,13.49
2022-08-30T02:20:03.329Z,13.46
2022-08-30T02:21:03.387Z,13.44
2022-08-30T02:22:03.331Z,13.41
2022-08-30T02:23:03.360Z,13.38
2022-08-30T02:24:03.345Z,13.37
2022-08-30T02:25:03.373Z,13.34
2022-08-30T02:26:03.334Z,13.32
2022-08-30T02:27:03.325Z,13.29
2022-08-30T02:28:03.350Z,13.27
2022-08-30T02:29:03.362Z,13.26
2022-08-30T02:30:03.347Z,13.25
2022-08-30T02:31:03.378Z,13.23
2022-08-30T02:32:03.359Z,13.21
2022-08-30T02:33:03.359Z,13.21
2022-08-30T02:34:03.375Z,13.20
2022-08-30T02:35:03.385Z,13.20
2022-08-30T02:36:03.348Z,13.20
2022-08-30T02:37:03.381Z,13.18
2022-08-30T02:38:03.361Z,13.19
2022-08-30T02:39:03.347Z,13.20
2022-08-30T02:40:03.430Z,13.21
2022-08-30T02:41:03.350Z,13.24
2022-08-30T02:42:03.365Z,13.26
2022-08-30T02:43:03.378Z,13.25
2022-08-30T02:44:03.359Z,13.28
2022-08-30T02:45:03.389Z,13.32
2022-08-30T02:46:03.402Z,13.34
2022-08-30T02:47:03.374Z,13.39
2022-08-30T02:48:03.422Z,13.40
2022-08-30T02:49:29.893Z,13.42
2022-08-30T02:50:03.392Z,13.43
2022-08-30T02:51:03.375Z,13.45
2022-08-30T02:52:03.377Z,13.45
2022-08-30T02:53:03.372Z,13.46
2022-08-30T02:54:03.358Z,13.47
2022-08-30T02:55:03.420Z,13.47
2022-08-30T02:56:03.376Z,13.47
2022-08-30T02:57:03.363Z,13.48
2022-08-30T02:58:03.375Z,13.49
2022-08-30T02:59:03.365Z,13.49
2022-08-30T03:00:03.401Z,13.50
2022-08-30T03:01:03.412Z,13.50
2022-08-30T03:02:03.397Z,13.50
2022-08-30T03:03:03.393Z,13.51
2022-08-30T03:04:03.426Z,13.51
2022-08-30T03:05:03.438Z,13.52
2022-08-30T03:06:03.418Z,13.52
2022-08-30T03:07:03.379Z,13.51
2022-08-30T03:08:03.420Z,13.48
2022-08-30T03:09:03.405Z,13.41
2022-08-30T03:10:03.744Z,13.36
2022-08-30T03:11:03.397Z,13.34
2022-08-30T03:12:03.422Z,13.31
2022-08-30T03:13:03.417Z,13.30
2022-08-30T03:14:03.395Z,13.28
2022-08-30T03:15:03.423Z,13.25
2022-08-30T03:16:03.467Z,13.25
2022-08-30T03:17:03.415Z,13.25
2022-08-30T03:18:03.383Z,13.25
2022-08-30T03:19:03.444Z,13.25
2022-08-30T03:20:03.415Z,13.27
2022-08-30T03:21:03.431Z,13.27
2022-08-30T03:22:03.408Z,13.29
2022-08-30T03:23:03.394Z,13.27
2022-08-30T03:24:03.428Z,13.29
2022-08-30T03:25:03.428Z,13.30
2022-08-30T03:26:03.394Z,13.29
2022-08-30T03:27:03.448Z,13.30
2022-08-30T03:28:03.413Z,13.29
2022-08-30T03:29:03.427Z,13.28
2022-08-30T03:30:03.434Z,13.26
2022-08-30T03:31:03.420Z,13.24
2022-08-30T03:32:03.487Z,13.23
2022-08-30T03:33:03.408Z,13.22
2022-08-30T03:34:03.451Z,13.20
2022-08-30T03:35:03.460Z,13.18
2022-08-30T03:36:03.432Z,13.17
2022-08-30T03:37:03.426Z,13.18
2022-08-30T03:38:03.419Z,13.20
2022-08-30T03:39:03.417Z,13.18
2022-08-30T03:40:03.513Z,13.17
2022-08-30T03:41:03.441Z,13.15
2022-08-30T03:42:03.431Z,13.10
2022-08-30T03:43:03.432Z,13.07
2022-08-30T03:44:03.421Z,13.05
2022-08-30T03:45:03.464Z,13.02
2022-08-30T03:46:03.506Z,12.98
2022-08-30T03:47:03.453Z,12.95
2022-08-30T03:48:03.436Z,12.93
2022-08-30T03:49:03.451Z,12.89
2022-08-30T03:50:03.436Z,12.88
2022-08-30T03:51:03.451Z,12.87
2022-08-30T03:52:03.451Z,12.85
2022-08-30T03:53:03.461Z,12.83
2022-08-30T03:54:03.464Z,12.81
2022-08-30T03:55:03.479Z,12.79
2022-08-30T03:56:03.497Z,12.75
2022-08-30T03:57:03.520Z,12.74
2022-08-30T03:58:03.525Z,12.71
2022-08-30T03:59:03.528Z,12.69
2022-08-30T04:00:06.390Z,12.69
2022-08-30T04:01:03.736Z,12.69
2022-08-30T04:02:03.738Z,12.69
2022-08-30T04:03:03.686Z,12.71
2022-08-30T04:04:03.719Z,12.73
2022-08-30T04:05:03.755Z,12.74
2022-08-30T04:06:03.751Z,12.73
2022-08-30T04:07:03.746Z,12.70
2022-08-30T04:08:03.780Z,12.69
2022-08-30T04:09:03.772Z,12.66
2022-08-30T04:10:03.792Z,12.65
2022-08-30T04:11:05.254Z,12.65
2022-08-30T04:12:03.818Z,12.63
2022-08-30T04:13:03.816Z,12.63
2022-08-30T04:14:03.864Z,12.61
2022-08-30T04:15:03.864Z,12.59
2022-08-30T04:16:03.942Z,12.57
2022-08-30T04:17:03.882Z,12.54
2022-08-30T04:18:03.879Z,12.53
2022-08-30T04:19:04.263Z,12.49
2022-08-30T04:20:03.945Z,12.47
2022-08-30T04:21:03.968Z,12.45
2022-08-30T04:22:03.921Z,12.44
2022-08-30T04:23:03.979Z,12.41
2022-08-30T04:24:03.969Z,12.38
2022-08-30T04:25:03.968Z,12.36
2022-08-30T04:26:03.967Z,12.34
2022-08-30T04:27:04.012Z,12.30
2022-08-30T04:28:04.015Z,12.28
2022-08-30T04:29:04.037Z,12.28
2022-08-30T04:30:04.025Z,12.26
2022-08-30T04:31:04.045Z,12.25
2022-08-30T04:32:04.096Z,12.24
2022-08-30T04:33:04.042Z,12.23
2022-08-30T04:34:04.080Z,12.22
2022-08-30T04:35:04.103Z,12.20
2022-08-30T04:36:04.082Z,12.20
2022-08-30T04:37:04.177Z,12.17
2022-08-30T04:38:04.148Z,12.17
2022-08-30T04:39:04.146Z,12.14
2022-08-30T04:40:04.199Z,12.12
2022-08-30T04:41:04.162Z,12.11
2022-08-30T04:42:04.179Z,12.08
2022-08-30T04:43:04.186Z,12.07
2022-08-30T04:44:04.197Z,12.07
2022-08-30T04:45:04.223Z,12.06
2022-08-30T04:46:04.237Z,12.06
2022-08-30T04:47:04.233Z,12.06
2022-08-30T04:48:04.238Z,12.06
2022-08-30T04:49:04.257Z,12.09
2022-08-30T04:50:04.257Z,12.10
2022-08-30T04:51:04.276Z,12.11
2022-08-30T04:52:04.301Z,12.13
2022-08-30T04:53:04.297Z,12.12
2022-08-30T04:54:04.306Z,12.13
2022-08-30T04:55:04.355Z,12.13
2022-08-30T04:56:04.328Z,12.13
2022-08-30T04:57:04.350Z,12.13
2022-08-30T04:58:04.397Z,12.13
2022-08-30T04:59:04.401Z,12.13
2022-08-30T05:00:04.416Z,12.13
2022-08-30T05:01:04.562Z,12.14
2022-08-30T05:02:04.501Z,12.15
2022-08-30T05:03:04.424Z,12.15
2022-08-30T05:04:04.462Z,12.16
2022-08-30T05:05:04.478Z,12.16
2022-08-30T05:06:04.453Z,12.16
2022-08-30T05:07:04.496Z,12.16
2022-08-30T05:08:04.507Z,12.17
2022-08-30T05:09:04.494Z,12.16
2022-08-30T05:10:07.817Z,12.18
2022-08-30T05:11:04.501Z,12.19
2022-08-30T05:12:04.504Z,12.18
2022-08-30T05:13:04.508Z,12.18
2022-08-30T05:14:04.496Z,12.19
2022-08-30T05:15:04.504Z,12.21
2022-08-30T05:16:04.815Z,12.22
2022-08-30T05:17:04.576Z,12.23
2022-08-30T05:18:04.524Z,12.23
2022-08-30T05:19:04.576Z,12.25
2022-08-30T05:20:04.527Z,12.26
2022-08-30T05:21:04.531Z,12.26
2022-08-30T05:22:04.510Z,12.27
2022-08-30T05:23:04.532Z,12.28
2022-08-30T05:24:04.519Z,12.28
2022-08-30T05:25:04.560Z,12.29
2022-08-30T05:26:04.561Z,12.28
2022-08-30T05:27:04.529Z,12.29
2022-08-30T05:28:04.525Z,12.29
2022-08-30T05:29:04.563Z,12.31
2022-08-30T05:30:04.536Z,12.32
2022-08-30T05:31:04.581Z,12.33
2022-08-30T05:32:04.555Z,12.35
2022-08-30T05:33:04.556Z,12.38
2022-08-30T05:34:04.547Z,12.39
2022-08-30T05:35:04.568Z,12.39
2022-08-30T05:36:04.548Z,12.42
2022-08-30T05:37:04.526Z,12.42
2022-08-30T05:38:04.537Z,12.43
2022-08-30T05:39:05.728Z,12.44
2022-08-30T05:40:04.565Z,12.46
2022-08-30T05:41:10.623Z,12.47
2022-08-30T05:42:04.566Z,12.49
2022-08-30T05:43:04.594Z,12.49
2022-08-30T05:44:04.558Z,12.51
2022-08-30T05:45:04.615Z,12.53
2022-08-30T05:46:04.527Z,12.54
2022-08-30T05:47:04.599Z,12.56
2022-08-30T05:48:04.579Z,12.57
2022-08-30T05:49:04.553Z,12.59
2022-08-30T05:50:04.584Z,12.60
2022-08-30T05:51:04.577Z,12.61
2022-08-30T05:52:04.571Z,12.63
2022-08-30T05:53:04.553Z,12.63
2022-08-30T05:54:04.555Z,12.65
2022-08-30T05:55:04.575Z,12.67
2022-08-30T05:56:04.545Z,12.70
2022-08-30T05:57:04.581Z,12.73
2022-08-30T05:58:04.550Z,12.77
2022-08-30T05:59:04.557Z,12.83
2022-08-30T06:00:04.566Z,12.89
2022-08-30T06:01:04.560Z,12.93
2022-08-30T06:02:04.629Z,12.98
2022-08-30T06:03:04.638Z,13.02
2022-08-30T06:04:04.562Z,13.06
2022-08-30T06:05:04.587Z,13.09
2022-08-30T06:06:04.586Z,13.14
2022-08-30T06:07:04.556Z,13.19
2022-08-30T06:08:04.569Z,13.23
2022-08-30T06:09:05.242Z,13.28
2022-08-30T06:10:04.846Z,13.32
2022-08-30T06:11:04.567Z,13.35
2022-08-30T06:12:04.598Z,13.39
2022-08-30T06:13:04.564Z,13.42
2022-08-30T06:14:04.572Z,13.46
2022-08-30T06:15:04.612Z,13.50
2022-08-30T06:16:04.607Z,13.54
2022-08-30T06:17:04.573Z,13.57
2022-08-30T06:18:04.620Z,13.60
2022-08-30T06:19:04.591Z,13.64
2022-08-30T06:20:04.594Z,13.70
2022-08-30T06:21:04.598Z,13.75
2022-08-30T06:22:04.597Z,13.78
2022-08-30T06:23:04.596Z,13.84
2022-08-30T06:24:04.604Z,13.90
2022-08-30T06:25:04.600Z,13.95
2022-08-30T06:26:04.604Z,13.99
2022-08-30T06:27:04.594Z,14.05
2022-08-30T06:28:04.599Z,14.10
2022-08-30T06:29:04.615Z,14.16
2022-08-30T06:30:04.606Z,14.23
2022-08-30T06:31:04.645Z,14.30
2022-08-30T06:32:04.605Z,14.36
2022-08-30T06:33:04.615Z,14.44
2022-08-30T06:34:04.599Z,14.51
2022-08-30T06:35:04.609Z,14.60
2022-08-30T06:36:06.017Z,14.65
2022-08-30T06:37:04.602Z,14.74
2022-08-30T06:38:04.583Z,14.84
2022-08-30T06:39:04.629Z,14.94
2022-08-30T06:40:04.646Z,15.03
2022-08-30T06:41:04.611Z,15.09
2022-08-30T06:42:04.614Z,15.16
2022-08-30T06:43:04.604Z,15.25
2022-08-30T06:44:04.631Z,15.32
2022-08-30T06:45:11.054Z,15.41
2022-08-30T06:46:04.642Z,15.49
2022-08-30T06:47:04.610Z,15.56
2022-08-30T06:48:04.624Z,15.65
2022-08-30T06:49:04.612Z,15.73
2022-08-30T06:50:04.630Z,15.84
2022-08-30T06:51:04.616Z,15.92
2022-08-30T06:52:04.661Z,16.00
2022-08-30T06:53:04.626Z,16.08
2022-08-30T06:54:04.600Z,16.16
2022-08-30T06:55:04.644Z,16.24
2022-08-30T06:56:04.620Z,16.33
2022-08-30T06:57:04.638Z,16.43
2022-08-30T06:58:04.635Z,16.56
2022-08-30T06:59:04.621Z,16.73
2022-08-30T07:00:04.700Z,16.93
2022-08-30T07:01:04.640Z,17.16
2022-08-30T07:02:04.681Z,17.41
2022-08-30T07:03:04.667Z,17.61
2022-08-30T07:04:04.689Z,17.81
2022-08-30T07:05:04.656Z,18.02
2022-08-30T07:06:04.633Z,18.22
2022-08-30T07:07:04.671Z,18.41
2022-08-30T07:08:04.661Z,18.57
2022-08-30T07:09:04.660Z,18.67
2022-08-30T07:10:04.681Z,18.78
2022-08-30T07:11:04.630Z,18.94
2022-08-30T07:12:04.654Z,19.11
2022-08-30T07:13:04.655Z,19.29
2022-08-30T07:14:04.648Z,19.40
2022-08-30T07:15:04.694Z,19.48
2022-08-30T07:16:04.683Z,19.56
2022-08-30T07:17:04.641Z,19.70
2022-08-30T07:18:04.655Z,19.83
2022-08-30T07:19:04.668Z,19.80
2022-08-30T07:20:04.677Z,19.93
2022-08-30T07:21:04.634Z,20.10
2022-08-30T07:22:04.641Z,20.29
2022-08-30T07:23:04.655Z,20.52
2022-08-30T07:24:04.642Z,20.77
2022-08-30T07:25:04.855Z,21.10
2022-08-30T07:26:04.659Z,21.41
2022-08-30T07:27:04.697Z,21.72
2022-08-30T07:28:04.683Z,22.05
2022-08-30T07:29:04.660Z,22.33
2022-08-30T07:30:04.687Z,22.67
2022-08-30T07:31:04.700Z,23.01
2022-08-30T07:32:04.718Z,23.24
2022-08-30T07:33:04.676Z,23.43
2022-08-30T07:34:04.680Z,23.65
2022-08-30T07:35:04.683Z,23.81
2022-08-30T07:36:04.694Z,23.94
2022-08-30T07:37:04.646Z,23.95
2022-08-30T07:38:04.689Z,23.85
2022-08-30T07:39:04.677Z,23.67
2022-08-30T07:40:04.769Z,23.48
2022-08-30T07:41:04.676Z,23.29
2022-08-30T07:42:04.673Z,23.11
2022-08-30T07:43:04.666Z,22.88
2022-08-30T07:44:04.690Z,22.69
2022-08-30T07:45:04.704Z,22.56
2022-08-30T07:46:04.753Z,22.45
2022-08-30T07:47:04.672Z,22.37
2022-08-30T07:48:04.757Z,22.31
2022-08-30T07:49:04.729Z,22.25
2022-08-30T07:50:04.701Z,22.26
2022-08-30T07:51:05.437Z,22.35
2022-08-30T07:52:04.699Z,22.43
2022-08-30T07:53:06.700Z,22.47
2022-08-30T07:54:04.702Z,22.51
2022-08-30T07:55:04.715Z,22.54
2022-08-30T07:56:04.865Z,22.51
2022-08-30T07:57:04.684Z,22.39
2022-08-30T07:58:04.712Z,22.26
2022-08-30T07:59:04.709Z,22.15
2022-08-30T08:00:04.715Z,22.06
2022-08-30T08:01:04.710Z,21.95
2022-08-30T08:02:04.767Z,21.82
2022-08-30T08:03:04.758Z,21.67
2022-08-30T08:04:04.704Z,21.56
2022-08-30T08:05:04.709Z,21.50
2022-08-30T08:06:04.703Z,21.44
2022-08-30T08:07:04.720Z,21.37
2022-08-30T08:08:04.706Z,21.30
2022-08-30T08:09:04.707Z,21.32
2022-08-30T08:10:04.703Z,21.35
2022-08-30T08:11:04.701Z,21.40
2022-08-30T08:12:04.705Z,21.46
2022-08-30T08:13:04.716Z,21.49
2022-08-30T08:14:04.771Z,21.52
2022-08-30T08:15:08.202Z,21.56
2022-08-30T08:16:04.749Z,21.59
2022-08-30T08:17:04.721Z,21.63
2022-08-30T08:18:04.734Z,21.67
2022-08-30T08:19:04.730Z,21.69
2022-08-30T08:20:04.736Z,21.73
2022-08-30T08:21:04.728Z,21.78
2022-08-30T08:22:20.131Z,21.85
2022-08-30T08:23:04.736Z,21.90
2022-08-30T08:24:04.717Z,21.92
2022-08-30T08:25:04.738Z,21.95
2022-08-30T08:26:04.784Z,21.97
2022-08-30T08:27:04.752Z,22.04
2022-08-30T08:28:04.752Z,22.10
2022-08-30T08:29:04.745Z,22.20
2022-08-30T08:30:04.742Z,22.38
2022-08-30T08:31:04.809Z,22.59
2022-08-30T08:32:04.749Z,22.81
2022-08-30T08:33:04.745Z,23.10
2022-08-30T08:34:04.767Z,23.39
2022-08-30T08:35:04.748Z,23.71
2022-08-30T08:36:08.810Z,24.01
2022-08-30T08:37:04.751Z,24.19
2022-08-30T08:38:04.743Z,24.36
2022-08-30T08:39:04.746Z,24.52
2022-08-30T08:40:04.783Z,24.62
2022-08-30T08:41:04.757Z,24.75
2022-08-30T08:42:04.756Z,24.88
2022-08-30T08:43:04.749Z,24.92
2022-08-30T08:44:04.770Z,25.01
2022-08-30T08:45:07.445Z,25.10
2022-08-30T08:46:04.853Z,25.14
2022-08-30T08:47:04.806Z,25.24
2022-08-30T08:48:04.787Z,25.34
2022-08-30T08:49:04.782Z,25.49
2022-08-30T08:50:04.781Z,25.66
2022-08-30T08:51:04.780Z,25.84
2022-08-30T08:52:04.785Z,25.89
2022-08-30T08:53:04.781Z,25.96
2022-08-30T08:54:04.787Z,26.12
2022-08-30T08:55:04.779Z,26.24
2022-08-30T08:56:04.780Z,26.32
2022-08-30T08:57:04.784Z,26.32
2022-08-30T08:58:04.790Z,26.29
2022-08-30T08:59:04.788Z,26.39
2022-08-30T09:00:04.768Z,26.61
2022-08-30T09:01:04.854Z,26.85
2022-08-30T09:02:04.885Z,27.09
2022-08-30T09:03:04.755Z,27.29
2022-08-30T09:04:04.806Z,27.41
2022-08-30T09:05:04.861Z,27.53
2022-08-30T09:06:04.814Z,27.58
2022-08-30T09:07:04.821Z,27.63
2022-08-30T09:08:09.185Z,27.58
2022-08-30T09:09:04.791Z,27.51
2022-08-30T09:10:04.796Z,27.50
2022-08-30T09:11:04.777Z,27.34
2022-08-30T09:12:04.833Z,27.16
2022-08-30T09:13:04.819Z,26.98
2022-08-30T09:14:04.814Z,26.80
2022-08-30T09:15:04.816Z,26.64
2022-08-30T09:16:04.867Z,26.41
2022-08-30T09:17:04.807Z,26.28
2022-08-30T09:18:04.836Z,26.23
2022-08-30T09:19:04.824Z,26.19
2022-08-30T09:20:04.816Z,26.12
2022-08-30T09:21:04.844Z,26.04
2022-08-30T09:22:04.826Z,25.94
2022-08-30T09:23:04.818Z,25.96
2022-08-30T09:24:04.810Z,26.11
2022-08-30T09:25:04.977Z,26.26
2022-08-30T09:26:04.818Z,26.48
2022-08-30T09:27:04.842Z,26.71
2022-08-30T09:28:04.805Z,27.02
2022-08-30T09:29:04.816Z,27.32
2022-08-30T09:30:04.832Z,27.43
2022-08-30T09:31:06.802Z,27.55
2022-08-30T09:32:24.739Z,27.56
2022-08-30T09:33:04.821Z,27.65
2022-08-30T09:34:04.822Z,27.43
2022-08-30T09:35:04.852Z,27.38
2022-08-30T09:36:04.834Z,27.57
2022-08-30T09:37:04.849Z,27.84
2022-08-30T09:38:04.828Z,28.02
2022-08-30T09:39:04.865Z,28.01
2022-08-30T09:40:04.844Z,27.95
2022-08-30T09:41:04.822Z,27.89
2022-08-30T09:42:04.864Z,28.02
2022-08-30T09:43:04.841Z,28.00
2022-08-30T09:44:04.846Z,27.88
2022-08-30T09:45:04.854Z,27.85
2022-08-30T09:46:04.909Z,27.80
2022-08-30T09:47:04.871Z,27.97
2022-08-30T09:48:04.841Z,28.18
2022-08-30T09:49:04.835Z,28.27
2022-08-30T09:50:04.857Z,28.27
2022-08-30T09:51:04.851Z,28.33
2022-08-30T09:52:05.275Z,28.31
2022-08-30T09:53:04.910Z,28.43
2022-08-30T09:54:17.495Z,28.63
2022-08-30T09:55:04.846Z,28.69
2022-08-30T09:56:04.847Z,28.70
2022-08-30T09:57:04.872Z,28.51
2022-08-30T09:58:04.919Z,28.30
2022-08-30T09:59:04.865Z,28.40
2022-08-30T10:00:04.861Z,28.53
2022-08-30T10:01:04.909Z,28.62
2022-08-30T10:02:04.911Z,28.66
2022-08-30T10:03:04.940Z,28.80
2022-08-30T10:04:04.879Z,28.98
2022-08-30T10:05:04.867Z,28.98
2022-08-30T10:06:04.875Z,29.00
2022-08-30T10:07:04.889Z,29.14
2022-08-30T10:08:04.883Z,29.23
2022-08-30T10:09:04.885Z,29.22
2022-08-30T10:10:04.909Z,29.36
2022-08-30T10:11:04.882Z,29.58
2022-08-30T10:12:04.903Z,29.60
2022-08-30T10:13:04.902Z,29.80
2022-08-30T10:14:04.932Z,30.06
2022-08-30T10:15:04.890Z,30.20
2022-08-30T10:16:04.877Z,30.27
2022-08-30T10:17:04.909Z,30.46
2022-08-30T10:18:04.906Z,30.61
2022-08-30T10:19:06.411Z,30.68
2022-08-30T10:20:04.932Z,30.74
2022-08-30T10:21:04.912Z,30.73
2022-08-30T10:22:04.890Z,30.79
2022-08-30T10:23:04.890Z,30.84
2022-08-30T10:24:04.897Z,30.92
2022-08-30T10:25:04.909Z,31.01
2022-08-30T10:26:04.907Z,31.19
2022-08-30T10:27:05.265Z,31.34
2022-08-30T10:28:04.903Z,31.51
2022-08-30T10:29:04.928Z,31.60
2022-08-30T10:30:04.912Z,31.80
2022-08-30T10:31:04.915Z,32.12
2022-08-30T10:32:04.936Z,32.33
2022-08-30T10:33:04.908Z,32.42
2022-08-30T10:34:04.961Z,32.54
2022-08-30T10:35:04.938Z,32.67
2022-08-30T10:36:04.920Z,32.85
2022-08-30T10:37:04.914Z,32.97
2022-08-30T10:38:04.935Z,33.13
2022-08-30T10:39:04.935Z,33.35
2022-08-30T10:40:04.947Z,33.31
2022-08-30T10:41:04.933Z,33.35
2022-08-30T10:42:04.952Z,33.55
2022-08-30T10:43:04.958Z,33.83
2022-08-30T10:44:04.928Z,34.13
2022-08-30T10:45:04.939Z,34.47
2022-08-30T10:46:04.944Z,34.77
2022-08-30T10:47:04.930Z,34.88
2022-08-30T10:48:04.944Z,35.03
2022-08-30T10:49:04.947Z,35.12
2022-08-30T10:50:04.951Z,35.20
2022-08-30T10:51:04.963Z,35.20
2022-08-30T10:52:04.975Z,35.09
2022-08-30T10:53:04.959Z,35.19
2022-08-30T10:54:04.970Z,35.43
2022-08-30T10:55:04.939Z,35.51
2022-08-30T10:56:04.950Z,35.48
2022-08-30T10:57:04.975Z,35.35
2022-08-30T10:58:04.962Z,35.11
2022-08-30T10:59:04.972Z,34.91
2022-08-30T11:01:05.974Z,34.61
2022-08-30T11:02:05.006Z,34.60
2022-08-30T11:03:04.985Z,34.74
2022-08-30T11:04:04.971Z,34.76
2022-08-30T11:05:04.961Z,34.63
2022-08-30T11:06:04.994Z,34.40
2022-08-30T11:07:08.023Z,34.47
2022-08-30T11:08:04.975Z,34.45
2022-08-30T11:09:04.975Z,34.49
2022-08-30T11:10:04.961Z,34.56
2022-08-30T11:11:04.959Z,34.86
2022-08-30T11:12:05.029Z,35.07
2022-08-30T11:13:05.003Z,35.22
2022-08-30T11:14:05.698Z,35.39
2022-08-30T11:15:05.017Z,35.11
2022-08-30T11:16:04.988Z,34.62
2022-08-30T11:17:05.015Z,34.34
2022-08-30T11:18:04.995Z,34.49
2022-08-30T11:19:05.002Z,34.81
2022-08-30T11:20:04.998Z,35.05
2022-08-30T11:21:05.003Z,34.96
2022-08-30T11:22:04.994Z,34.75
2022-08-30T11:23:05.011Z,34.75
2022-08-30T11:24:10.798Z,34.90
2022-08-30T11:26:04.989Z,35.56
2022-08-30T11:27:05.355Z,35.32
2022-08-30T11:28:05.029Z,35.07
2022-08-30T11:29:05.052Z,35.27
2022-08-30T11:30:05.009Z,35.60
2022-08-30T11:31:05.460Z,35.84
2022-08-30T11:32:05.038Z,35.97
2022-08-30T11:34:05.047Z,35.71
2022-08-30T11:35:05.025Z,35.51
2022-08-30T11:36:05.006Z,35.40
2022-08-30T11:37:09.531Z,35.58
2022-08-30T11:38:05.012Z,35.80
2022-08-30T11:39:05.045Z,36.02
2022-08-30T11:40:05.013Z,36.16
2022-08-30T11:41:05.021Z,35.96
2022-08-30T11:42:05.054Z,35.91
2022-08-30T11:43:05.031Z,35.90
2022-08-30T11:44:05.051Z,35.98
2022-08-30T11:45:05.019Z,36.27
2022-08-30T11:46:05.090Z,36.64
2022-08-30T11:47:05.225Z,36.97
2022-08-30T11:48:05.058Z,37.26
2022-08-30T11:49:05.050Z,37.39
2022-08-30T11:50:10.974Z,37.47
2022-08-30T11:51:05.055Z,37.33
2022-08-30T11:52:27.468Z,37.39
2022-08-30T11:53:05.048Z,37.62
2022-08-30T11:54:05.064Z,37.84
2022-08-30T11:55:06.948Z,38.04
2022-08-30T11:56:05.083Z,37.97
2022-08-30T11:57:05.059Z,37.70
2022-08-30T11:58:05.041Z,37.42
2022-08-30T11:59:05.040Z,36.80
2022-08-30T12:00:05.065Z,36.53
2022-08-30T12:01:05.934Z,36.41
2022-08-30T12:02:05.154Z,36.12
2022-08-30T12:03:05.235Z,36.11
2022-08-30T12:04:05.084Z,36.23
2022-08-30T12:05:05.061Z,36.47
2022-08-30T12:06:05.061Z,36.81
2022-08-30T12:07:05.094Z,37.01
2022-08-30T12:08:05.088Z,37.01
2022-08-30T12:09:08.371Z,37.01
2022-08-30T12:10:05.113Z,37.13
2022-08-30T12:11:05.051Z,37.04
2022-08-30T12:12:05.074Z,36.95
2022-08-30T12:13:05.093Z,37.00
2022-08-30T12:14:09.014Z,36.87
2022-08-30T12:15:05.077Z,36.93
2022-08-30T12:16:05.114Z,36.99
2022-08-30T12:17:05.090Z,36.83
2022-08-30T12:18:05.083Z,36.64
2022-08-30T12:19:05.086Z,36.74
2022-08-30T12:20:05.121Z,36.25
2022-08-30T12:21:05.091Z,35.84
2022-08-30T12:22:05.231Z,35.77
2022-08-30T12:23:05.250Z,35.61
2022-08-30T12:24:05.231Z,35.64
2022-08-30T12:25:05.266Z,35.46
2022-08-30T12:26:05.282Z,35.09
2022-08-30T12:27:05.266Z,34.83
2022-08-30T12:28:05.303Z,34.82
2022-08-30T12:29:05.263Z,34.32
2022-08-30T12:30:05.291Z,33.96
2022-08-30T12:31:05.311Z,33.66
2022-08-30T12:32:05.592Z,33.50
2022-08-30T12:33:05.386Z,33.13
2022-08-30T12:34:05.355Z,32.94
2022-08-30T12:35:05.358Z,33.16
2022-08-30T12:36:05.401Z,33.58
2022-08-30T12:37:05.438Z,34.20
2022-08-30T12:38:05.444Z,34.77
2022-08-30T12:39:05.619Z,34.88
2022-08-30T12:40:06.100Z,35.19
2022-08-30T12:41:05.847Z,35.73
2022-08-30T12:42:05.506Z,36.01
2022-08-30T12:43:05.495Z,36.23
2022-08-30T12:44:05.510Z,36.28
2022-08-30T12:45:05.519Z,36.35
2022-08-30T12:46:07.555Z,36.43
2022-08-30T12:47:05.553Z,36.21
2022-08-30T12:48:05.528Z,35.86
2022-08-30T12:49:05.574Z,35.68
2022-08-30T12:50:05.555Z,35.50
2022-08-30T12:51:05.566Z,35.40
2022-08-30T12:52:05.590Z,35.43
2022-08-30T12:53:05.604Z,35.52
2022-08-30T12:54:05.606Z,35.72
2022-08-30T12:55:05.620Z,36.07